^^
Meteo Knjazevac Station Historical Data
Daily Summary for January 8, 2022 Units:  Metric    English   Both
Daily Weekly Monthly Yearly Custom
  High: Low: Average:
Temperature: 33.8 °C 17.8 °C 25.4 °C
Dew Point: 22.6 °C 16.4 °C 18.8 °C
Humidity: 98.8% 39.9% 71%
Wind Speed: 24.1km/h 0km/h 7.4km/h
Wind Gust: 29km/h - -
Wind- - SSE
Pressure: 1019.9 hPa 1016.1 hPa -
Precipitation: 0 mm    
Historical Graphs
 
 
Tabular Data for January 8, 2022
Time Temperature Dew Point Pressure Wind Wind Speed Wind Gust Humidity Rainfall Rate (Hourly) solar Conditions
00:03 20.3 °C 19.1 °C 1017.8 hPa ESE 3.7 km/h 3.2 km/h 93% 0 mm 0 W/m2
00:09 20.2 °C 19.1 °C 1018.2 hPa ESE 4.5 km/h 4.8 km/h 93% 0 mm 0 W/m2
00:14 20.2 °C 19 °C 1018.2 hPa SE 5.6 km/h 5 km/h 93% 0 mm 0 W/m2
00:19 20.1 °C 18.9 °C 1017.8 hPa South 4.7 km/h 8 km/h 93% 0 mm 0 W/m2
00:24 20.1 °C 18.9 °C 1017.8 hPa WSW 3.2 km/h 4.8 km/h 93% 0 mm 0 W/m2
00:29 20.1 °C 18.9 °C 1018.2 hPa WNW 2.7 km/h 3.2 km/h 92.6% 0 mm 0 W/m2
00:34 20.1 °C 18.9 °C 1018.2 hPa West 3.7 km/h 3.2 km/h 93% 0 mm 0 W/m2
00:39 20.1 °C 18.9 °C 1017.8 hPa SW 3.2 km/h 3.2 km/h 93% 0 mm 0 W/m2
00:44 19.9 °C 18.8 °C 1018.2 hPa SW 3.2 km/h 3.2 km/h 93.2% 0 mm 0 W/m2
00:49 19.9 °C 18.8 °C 1018.2 hPa SE 3.4 km/h 3.2 km/h 93.7% 0 mm 0 W/m2
00:54 19.8 °C 18.7 °C 1018.2 hPa SSE 2.1 km/h 3.2 km/h 93% 0 mm 0 W/m2
00:59 19.8 °C 18.8 °C 1018.2 hPa NNW 1.1 km/h 3.2 km/h 93.8% 0 mm 0 W/m2
01:04 19.7 °C 18.7 °C 1018.2 hPa NNE 3.4 km/h 3.2 km/h 94% 0 mm 0 W/m2
01:09 19.6 °C 18.6 °C 1018.2 hPa ENE 1.6 km/h 4.8 km/h 94% 0 mm 0 W/m2
01:14 19.6 °C 18.6 °C 1018.2 hPa NNE 3.2 km/h 3.2 km/h 94% 0 mm 0 W/m2
01:19 19.6 °C 18.6 °C 1018.2 hPa West 3.7 km/h 3.2 km/h 94% 0 mm 0 W/m2
01:24 19.4 °C 18.4 °C 1018.2 hPa SW 2.7 km/h 3.2 km/h 94.3% 0 mm 0 W/m2
01:29 19.4 °C 18.4 °C 1018.2 hPa WSW 1.4 km/h 4.8 km/h 94.3% 0 mm 0 W/m2
01:34 19.3 °C 18.5 °C 1018.2 hPa North 0.6 km/h 3.2 km/h 95% 0 mm 0 W/m2
01:39 19.3 °C 18.5 °C 1017.8 hPa NNW 3.1 km/h 2.1 km/h 95% 0 mm 0 W/m2
01:44 19.2 °C 18.4 °C 1018.2 hPa NW 2.6 km/h 3.2 km/h 95% 0 mm 0 W/m2
01:49 19.2 °C 18.3 °C 1018.2 hPa NNE 1.6 km/h 3.2 km/h 95% 0 mm 0 W/m2
01:54 19.1 °C 18.3 °C 1018.2 hPa NNE 2.9 km/h 3.2 km/h 95% 0 mm 0 W/m2
01:59 19.1 °C 18.3 °C 1018.2 hPa NNE 2.1 km/h 3.2 km/h 95% 0 mm 0 W/m2
02:04 19 °C 18.2 °C 1018.2 hPa NNE 1.9 km/h 2.1 km/h 95% 0 mm 0 W/m2
02:09 18.9 °C 18.1 °C 1018.2 hPa NNE 1.3 km/h 3.2 km/h 95% 0 mm 0 W/m2
02:14 18.9 °C 18.1 °C 1018.2 hPa North 1.3 km/h 1.6 km/h 95% 0 mm 0 W/m2
02:19 18.9 °C 18.1 °C 1018.2 hPa SW 2.1 km/h 1.6 km/h 95% 0 mm 0 W/m2
02:24 18.9 °C 18.1 °C 1018.2 hPa SW 1.1 km/h 3.2 km/h 95% 0 mm 0 W/m2
02:29 18.8 °C 18 °C 1018.2 hPa SW 2.3 km/h 3.2 km/h 95% 0 mm 0 W/m2
02:34 18.7 °C 17.9 °C 1018.2 hPa WSW 2.9 km/h 2.1 km/h 95% 0 mm 0 W/m2
02:39 18.7 °C 17.9 °C 1018.2 hPa West 0.6 km/h 3.2 km/h 95% 0 mm 0 W/m2
02:44 18.6 °C 17.8 °C 1018.2 hPa WNW 1 km/h 1.6 km/h 95% 0 mm 0 W/m2
02:49 18.6 °C 17.8 °C 1018.2 hPa West 0.8 km/h 0.3 km/h 95.1% 0 mm 0 W/m2
02:54 18.6 °C 17.8 °C 1018.2 hPa West 1.3 km/h 1.6 km/h 95.2% 0 mm 0 W/m2
02:59 18.5 °C 17.7 °C 1018.2 hPa West 0.2 km/h 1.6 km/h 95% 0 mm 0 W/m2
03:04 18.4 °C 17.6 °C 1018.2 hPa WSW 3.1 km/h 2.6 km/h 95% 0 mm 0 W/m2
03:09 18.4 °C 17.6 °C 1018.2 hPa WSW 3.7 km/h 3.2 km/h 95% 0 mm 0 W/m2
03:14 18.3 °C 17.5 °C 1018.2 hPa West 3.4 km/h 3.2 km/h 95% 0 mm 0 W/m2
03:19 18.2 °C 17.4 °C 1018.2 hPa West 3.5 km/h 3.2 km/h 95% 0 mm 0 W/m2
03:24 18.2 °C 17.4 °C 1018.2 hPa West 2.6 km/h 3.2 km/h 95.3% 0 mm 0 W/m2
03:29 18.1 °C 17.4 °C 1018.2 hPa West 2.4 km/h 3.2 km/h 96% 0 mm 0 W/m2
03:34 18.1 °C 17.4 °C 1018.5 hPa West 4.8 km/h 4.8 km/h 96% 0 mm 0 W/m2
03:39 18 °C 17.3 °C 1018.5 hPa WNW 4.7 km/h 4.8 km/h 96% 0 mm 0 W/m2
03:44 18.1 °C 17.4 °C 1018.2 hPa West 2.7 km/h 4.8 km/h 96% 0 mm 0 W/m2
03:49 18.1 °C 17.4 °C 1018.2 hPa West 1.6 km/h 3.2 km/h 96% 0 mm 0 W/m2
03:54 18.1 °C 17.4 °C 1018.2 hPa WNW 0.3 km/h 1.6 km/h 96% 0 mm 0 W/m2
03:59 18.1 °C 17.4 °C 1018.2 hPa Calm     96% 0 mm 0 W/m2
04:04 18.1 °C 17.4 °C 1018.2 hPa WSW 1.1 km/h 0.3 km/h 96% 0 mm 0 W/m2
04:09 18.1 °C 17.6 °C 1018.5 hPa NW 4.7 km/h 4.7 km/h 97.1% 0 mm 0 W/m2
04:14 18.2 °C 17.9 °C 1018.2 hPa NNE 3.1 km/h 6.4 km/h 98% 0 mm 0 W/m2
04:19 18.2 °C 17.9 °C 1018.2 hPa NNE 1.1 km/h 3.2 km/h 98% 0 mm 0 W/m2
04:24 18.2 °C 17.7 °C 1018.2 hPa North 0.5 km/h 3.2 km/h 96.7% 0 mm 0 W/m2
04:29 18.2 °C 17.6 °C 1018.5 hPa North 1.8 km/h 1.8 km/h 96% 0 mm 0 W/m2
04:34 18.1 °C 17.4 °C 1018.5 hPa NW 3.5 km/h 3.2 km/h 96% 0 mm 0 W/m2
04:39 18.1 °C 17.4 °C 1018.5 hPa WNW 2.6 km/h 3.2 km/h 96% 0 mm 0 W/m2
04:44 18 °C 17.3 °C 1018.5 hPa NW 2.9 km/h 2.6 km/h 96% 0 mm 0 W/m2
04:49 17.9 °C 17.3 °C 1018.5 hPa NW 2.7 km/h 3.2 km/h 96% 0 mm 0 W/m2
04:54 17.9 °C 17.3 °C 1018.5 hPa West 3.7 km/h 3.2 km/h 96.1% 0 mm 0 W/m2
04:59 17.9 °C 17.6 °C 1018.5 hPa West 3.7 km/h 3.2 km/h 98% 0 mm 0 W/m2
05:04 17.8 °C 17.5 °C 1018.5 hPa WNW 4 km/h 3.2 km/h 98% 0 mm 0 W/m2
05:09 17.8 °C 17.5 °C 1018.5 hPa WNW 3.2 km/h 4.8 km/h 98% 0 mm 0 W/m2
05:14 17.9 °C 17.6 °C 1018.5 hPa WNW 0.6 km/h 3.2 km/h 98% 0 mm 0 W/m2
05:19 17.9 °C 17.6 °C 1018.5 hPa Calm   1.6 km/h 98.4% 0 mm 0 W/m2
05:24 17.9 °C 17.7 °C 1018.5 hPa North 0.6 km/h   98.8% 0 mm 1 W/m2
05:29 17.9 °C 17.4 °C 1018.5 hPa North 0.3 km/h 1.6 km/h 97.3% 0 mm 3 W/m2
05:34 17.9 °C 17.3 °C 1018.5 hPa North 0.8 km/h 0.3 km/h 96% 0 mm 4 W/m2
05:39 17.8 °C 17.2 °C 1018.5 hPa NNW 0.5 km/h 1.6 km/h 96% 0 mm 7 W/m2
05:44 17.8 °C 17.2 °C 1018.8 hPa WNW 0.6 km/h 1.6 km/h 96% 0 mm 9 W/m2
05:49 17.8 °C 17.2 °C 1018.8 hPa Calm   1.6 km/h 96% 0 mm 13 W/m2
05:54 17.8 °C 17.2 °C 1018.8 hPa WSW 1.6 km/h 1.4 km/h 96% 0 mm 17 W/m2
05:59 17.8 °C 17.3 °C 1018.8 hPa West 2.1 km/h 3.2 km/h 96.7% 0 mm 20 W/m2
06:04 17.8 °C 17.5 °C 1018.8 hPa West 2.6 km/h 3.2 km/h 98% 0 mm 22 W/m2
06:09 17.8 °C 17.5 °C 1018.8 hPa WNW 2.4 km/h 2.1 km/h 98% 0 mm 25 W/m2
06:14 17.8 °C 17.5 °C 1018.8 hPa WNW 2.6 km/h 3.2 km/h 98% 0 mm 29 W/m2
06:19 17.8 °C 17.5 °C 1018.8 hPa NW 1.4 km/h 3.2 km/h 98% 0 mm 34 W/m2
06:24 17.8 °C 17.5 °C 1018.8 hPa Calm   1.6 km/h 98% 0 mm 38 W/m2
06:29 17.9 °C 17.6 °C 1018.8 hPa NW 1.3 km/h 1.1 km/h 98% 0 mm 41 W/m2
06:34 17.9 °C 17.6 °C 1018.8 hPa WNW 2.9 km/h 3.2 km/h 98% 0 mm 45 W/m2
06:39 17.9 °C 17.6 °C 1018.8 hPa WSW 1.6 km/h 3.2 km/h 98% 0 mm 47 W/m2
06:44 17.9 °C 17.6 °C 1018.8 hPa West 1 km/h 1.6 km/h 98% 0 mm 57 W/m2
06:49 18 °C 17.7 °C 1018.8 hPa NW 4.5 km/h 3.2 km/h 98% 0 mm 61 W/m2
06:54 18.1 °C 17.8 °C 1019.2 hPa North 3.7 km/h 4.8 km/h 98% 0 mm 63 W/m2
06:59 18.2 °C 17.9 °C 1019.2 hPa NNE 2.1 km/h 4.8 km/h 98% 0 mm 69 W/m2
07:04 18.3 °C 18 °C 1019.2 hPa NNE 1.4 km/h 3.2 km/h 98% 0 mm 82 W/m2
07:09 18.3 °C 17.8 °C 1019.2 hPa North 0.2 km/h 1.6 km/h 96.3% 0 mm 165 W/m2
07:14 18.4 °C 17.8 °C 1019.2 hPa West 1 km/h   96% 0 mm 192 W/m2
07:19 18.4 °C 17.8 °C 1019.2 hPa WNW 1 km/h 1.6 km/h 96% 0 mm 194 W/m2
07:23 18.5 °C 17.8 °C 1019.2 hPa WNW 1.1 km/h 1.6 km/h 96% 0 mm 221 W/m2
07:29 18.7 °C 18 °C 1019.2 hPa Calm   1.6 km/h 96% 0 mm 229 W/m2
07:34 18.8 °C 18.2 °C 1019.2 hPa Calm     96% 0 mm 247 W/m2
07:39 18.9 °C 18.2 °C 1019.5 hPa Calm     96% 0 mm 274 W/m2
07:43 19 °C 18.3 °C 1019.5 hPa Calm     96% 0 mm 274 W/m2
07:49 19.2 °C 18.6 °C 1019.5 hPa SSW 3.2 km/h 3.2 km/h 95.9% 0 mm 243 W/m2
07:54 19.5 °C 18.7 °C 1019.2 hPa East 2.1 km/h 3.2 km/h 95% 0 mm 203 W/m2
07:59 19.7 °C 18.8 °C 1019.5 hPa NE 2.6 km/h 3.2 km/h 95% 0 mm 121 W/m2
08:04 19.8 °C 18.9 °C 1019.5 hPa Calm   3.2 km/h 94.7% 0 mm 132 W/m2
08:09 19.9 °C 18.9 °C 1019.5 hPa Calm     94.4% 0 mm 234 W/m2
08:14 19.9 °C 18.9 °C 1019.5 hPa Calm     94% 0 mm 185 W/m2
08:19 20.1 °C 19.1 °C 1019.5 hPa North 1.3 km/h 0.3 km/h 94% 0 mm 203 W/m2
08:24 20.3 °C 19.2 °C 1019.5 hPa NNE 5.1 km/h 3.5 km/h 93.8% 0 mm 212 W/m2
08:29 20.4 °C 19.3 °C 1019.5 hPa NNE 4 km/h 4.8 km/h 93% 0 mm 247 W/m2
08:34 20.7 °C 19.5 °C 1019.5 hPa NNE 0.6 km/h 4.8 km/h 93% 0 mm 299 W/m2
08:39 21 °C 19.5 °C 1019.5 hPa North 1 km/h 0.3 km/h 91% 0 mm 423 W/m2
08:44 21.3 °C 19.6 °C 1019.5 hPa NNE 6.6 km/h 4.7 km/h 90% 0 mm 487 W/m2
08:49 21.8 °C 20 °C 1019.9 hPa NE 2.7 km/h 8 km/h 89.6% 0 mm 545 W/m2
08:54 22.3 °C 20.2 °C 1019.9 hPa ENE 5.5 km/h 3.2 km/h 87.8% 0 mm 564 W/m2
08:59 22.6 °C 20.1 °C 1019.9 hPa ENE 6.1 km/h 8 km/h 86% 0 mm 566 W/m2
09:04 22.9 °C 20.5 °C 1019.9 hPa ENE 5.6 km/h 8 km/h 86.5% 0 mm 577 W/m2
09:09 23.3 °C 20.8 °C 1019.9 hPa NNE 7.1 km/h 6.4 km/h 85.8% 0 mm 576 W/m2
09:14 23.8 °C 20.9 °C 1019.9 hPa NNE 10.5 km/h 9.7 km/h 83.8% 0 mm 589 W/m2
09:19 24.1 °C 21.1 °C 1019.9 hPa NNE 9.5 km/h 12.9 km/h 83.4% 0 mm 603 W/m2
09:24 24.4 °C 21.1 °C 1019.9 hPa NNE 11.9 km/h 9.7 km/h 81.5% 0 mm 621 W/m2
09:29 24.7 °C 21.1 °C 1019.5 hPa NNE 6.1 km/h 12.9 km/h 80.7% 0 mm 630 W/m2
09:34 24.9 °C 21.3 °C 1019.9 hPa NNE 8.2 km/h 8.2 km/h 80.6% 0 mm 639 W/m2
09:39 25.2 °C 21.4 °C 1019.5 hPa NNE 11.4 km/h 12.9 km/h 79.5% 0 mm 653 W/m2
09:44 25.7 °C 21.7 °C 1019.5 hPa NNE 12.1 km/h 14.5 km/h 78.8% 0 mm 669 W/m2
09:49 25.9 °C 21.8 °C 1019.5 hPa North 12.4 km/h 14.5 km/h 78.1% 0 mm 682 W/m2
09:54 26.2 °C 21.8 °C 1019.5 hPa North 15.4 km/h 14.5 km/h 77% 0 mm 695 W/m2
09:59 26.6 °C 22.1 °C 1019.5 hPa North 13.7 km/h 19.3 km/h 76.4% 0 mm 709 W/m2
10:04 27 °C 22.3 °C 1019.5 hPa NNE 14.3 km/h 14.5 km/h 75.4% 0 mm 728 W/m2
10:09 27.4 °C 22.4 °C 1019.2 hPa North 11.1 km/h 16.1 km/h 74.2% 0 mm 741 W/m2
10:14 27.7 °C 22.4 °C 1019.2 hPa North 17.1 km/h 12.9 km/h 73.2% 0 mm 756 W/m2
10:19 27.8 °C 22.3 °C 1019.2 hPa North 16.9 km/h 19.3 km/h 72% 0 mm 763 W/m2
10:24 28.1 °C 22.3 °C 1019.2 hPa North 16.9 km/h 16.1 km/h 70.8% 0 mm 773 W/m2
10:29 28.3 °C 22.4 °C 1019.2 hPa North 13.7 km/h 20.9 km/h 70.4% 0 mm 774 W/m2
10:34 28.5 °C 22.2 °C 1019.2 hPa North 18.3 km/h 19.3 km/h 68.6% 0 mm 778 W/m2
10:39 28.5 °C 22.1 °C 1019.2 hPa NNE 16.7 km/h 19.3 km/h 68.4% 0 mm 801 W/m2
10:44 28.5 °C 22.2 °C 1019.2 hPa NNE 19.5 km/h 19.3 km/h 68.8% 0 mm 807 W/m2
10:49 28.7 °C 22.4 °C 1018.8 hPa North 20.9 km/h 12.6 km/h 68.6% 0 mm 593 W/m2
10:54 29 °C 22.5 °C 1018.8 hPa North 20.1 km/h 22.5 km/h 68% 0 mm 817 W/m2
10:59 29.2 °C 22.3 °C 1018.8 hPa NNE 24.1 km/h 22.5 km/h 66.5% 0 mm 839 W/m2
11:04 29.3 °C 22.6 °C 1018.8 hPa NNE 19.6 km/h 13.7 km/h 67% 0 mm 851 W/m2
11:09 29.7 °C 22.3 °C 1018.8 hPa NNE 23.2 km/h 20.9 km/h 64.8% 0 mm 847 W/m2
11:14 29.8 °C 22.3 °C 1018.8 hPa North 18.7 km/h 25.7 km/h 64.2% 0 mm 869 W/m2
11:19 30 °C 22.2 °C 1018.8 hPa North 18.2 km/h 20.9 km/h 63% 0 mm 873 W/m2
11:24 30.2 °C 22.3 °C 1018.5 hPa North 17.9 km/h 20.9 km/h 63% 0 mm 888 W/m2
11:29 30.4 °C 22.3 °C 1018.5 hPa North 16.9 km/h 12.2 km/h 61.8% 0 mm 897 W/m2
11:34 30.7 °C 22.2 °C 1018.5 hPa North 19.6 km/h 12.6 km/h 60.6% 0 mm 904 W/m2
11:39 30.8 °C 22.3 °C 1018.5 hPa North 18.3 km/h 22.5 km/h 60.6% 0 mm 905 W/m2
11:44 30.9 °C 21.9 °C 1018.5 hPa North 18.5 km/h 19.3 km/h 59% 0 mm 893 W/m2
11:49 30.9 °C 21.8 °C 1018.5 hPa NNE 16.6 km/h 24.1 km/h 58.6% 0 mm 918 W/m2
11:54 31 °C 21.8 °C 1018.5 hPa North 15.8 km/h 17.7 km/h 58.2% 0 mm 922 W/m2
11:55 26.4 °C 21.6 °C 1019.5 hPa NNE 9.7 km/h 19.3 km/h 75% 0 mm 695 W/m2
12:00 26.9 °C 22.5 °C 1019.5 hPa NNE 8 km/h 14.5 km/h 77% 0 mm 709 W/m2
12:05 27.3 °C 22.5 °C 1019.2 hPa NNE 11.3 km/h 16.1 km/h 75% 0 mm 728 W/m2
12:10 27.6 °C 22.3 °C 1019.2 hPa North 4.8 km/h 11.3 km/h 73% 0 mm 741 W/m2
12:15 27.8 °C 22.3 °C 1019.2 hPa North 11.3 km/h 19.3 km/h 72% 0 mm 756 W/m2
12:20 28 °C 22.5 °C 1019.2 hPa North 9.7 km/h 16.1 km/h 72% 0 mm 756 W/m2
12:25 28.2 °C 22.2 °C 1019.2 hPa North 1.6 km/h 19.3 km/h 70% 0 mm 773 W/m2
12:30 28.5 °C 22.3 °C 1019.2 hPa North 8 km/h 12.9 km/h 69% 0 mm 773 W/m2
12:39 31.4 °C 21 °C 1019.2 hPa North 12.7 km/h 19.3 km/h 54.6% 0 mm 778 W/m2
12:44 31 °C 21.4 °C 1019.2 hPa North 11.6 km/h 29 km/h 57% 0 mm 916 W/m2
12:49 31.4 °C 20.1 °C 1017.8 hPa NNW 20.4 km/h 12.2 km/h 51.2% 0 mm 824 W/m2
12:54 31.1 °C 20.2 °C 1017.8 hPa NNW 15.1 km/h 22.5 km/h 52.4% 0 mm 739 W/m2
12:59 31 °C 20.3 °C 1017.8 hPa North 15.4 km/h 16.1 km/h 53% 0 mm 974 W/m2
13:04 31.4 °C 20.1 °C 1017.5 hPa North 19.3 km/h 19.3 km/h 51.1% 0 mm 980 W/m2
13:09 31.7 °C 20.4 °C 1017.5 hPa North 19.5 km/h 22.5 km/h 51.1% 0 mm 957 W/m2
13:14 31.9 °C 20 °C 1017.5 hPa NNW 14.2 km/h 22.5 km/h 49.5% 0 mm 962 W/m2
13:19 32 °C 19.6 °C 1017.5 hPa NNW 15.1 km/h 16.1 km/h 48% 0 mm 930 W/m2
13:24 32.2 °C 20 °C 1017.5 hPa North 15.3 km/h 16.1 km/h 48.8% 0 mm 939 W/m2
13:29 32.3 °C 20 °C 1017.5 hPa North 14.8 km/h 10.1 km/h 48.2% 0 mm 452 W/m2
13:34 32.1 °C 19.7 °C 1017.2 hPa NNE 11.4 km/h 5.8 km/h 48.2% 0 mm 661 W/m2
13:39 31.9 °C 19.6 °C 1017.2 hPa East 14.8 km/h 14.5 km/h 48.1% 0 mm 924 W/m2
13:43 32.1 °C 19.6 °C 1017.2 hPa East 16.6 km/h 9.3 km/h 47.8% 0 mm 904 W/m2
13:49 32.3 °C 19.6 °C 1017.2 hPa ENE 12.9 km/h 17.7 km/h 47.1% 0 mm 884 W/m2
13:54 32.5 °C 19.1 °C 1017.2 hPa NE 20.9 km/h 9.7 km/h 45.3% 0 mm 885 W/m2
13:59 32.8 °C 19.1 °C 1017.2 hPa ENE 15 km/h 10.8 km/h 44.4% 0 mm 889 W/m2
14:03 32.9 °C 19.6 °C 1017.2 hPa East 11.9 km/h 16.1 km/h 45.6% 0 mm 877 W/m2
14:09 33.2 °C 19.7 °C 1017.2 hPa ENE 11.7 km/h 14.5 km/h 45.3% 0 mm 872 W/m2
14:14 33.3 °C 19.7 °C 1017.2 hPa ENE 21.2 km/h 16.1 km/h 44.8% 0 mm 866 W/m2
14:19 33.3 °C 20 °C 1017.2 hPa ENE 15 km/h 27.4 km/h 45.5% 0 mm 858 W/m2
14:24 33.3 °C 19.6 °C 1017.2 hPa ENE 16.1 km/h 8.7 km/h 44.3% 0 mm 850 W/m2
14:28 33.3 °C 19.9 °C 1017.2 hPa ENE 13.5 km/h 20.9 km/h 45.7% 0 mm 851 W/m2
14:34 33.3 °C 19.6 °C 1016.8 hPa ENE 15 km/h 17.7 km/h 44.4% 0 mm 860 W/m2
14:39 33.3 °C 19.2 °C 1016.8 hPa ENE 13.8 km/h 19.3 km/h 43.6% 0 mm 850 W/m2
14:44 33.3 °C 19.3 °C 1016.8 hPa ENE 17.4 km/h 19.3 km/h 43.6% 0 mm 840 W/m2
14:49 33.3 °C 19 °C 1016.8 hPa ENE 15.3 km/h 25.7 km/h 43% 0 mm 796 W/m2
14:54 33.2 °C 18.7 °C 1016.8 hPa ENE 15.8 km/h 19.3 km/h 42.6% 0 mm 781 W/m2
14:59 33.2 °C 19 °C 1016.8 hPa ENE 18.2 km/h 20.9 km/h 43.2% 0 mm 770 W/m2
15:04 33.3 °C 19.2 °C 1016.8 hPa NE 15.1 km/h 22.5 km/h 43.5% 0 mm 768 W/m2
15:09 33.4 °C 19.9 °C 1016.8 hPa NNE 15.3 km/h 19.3 km/h 44.9% 0 mm 747 W/m2
15:14 33.7 °C 19.4 °C 1016.8 hPa North 14.8 km/h 29 km/h 43.1% 0 mm 735 W/m2
15:19 33.6 °C 18.7 °C 1016.8 hPa NE 12.6 km/h 16.1 km/h 41.4% 0 mm 733 W/m2
15:24 33.7 °C 19.2 °C 1016.8 hPa ENE 13.5 km/h 12.9 km/h 42.6% 0 mm 713 W/m2
15:29 33.8 °C 19.4 °C 1016.5 hPa NE 8.9 km/h 16.1 km/h 42.8% 0 mm 691 W/m2
15:34 33.8 °C 19.1 °C 1016.5 hPa NNE 8.7 km/h 12.9 km/h 41.9% 0 mm 690 W/m2
15:39 33.7 °C 19 °C 1016.5 hPa NE 16.1 km/h 9.7 km/h 42% 0 mm 685 W/m2
15:44 33.6 °C 18.9 °C 1016.5 hPa ENE 12.2 km/h 22.5 km/h 42% 0 mm 672 W/m2
15:49 33.4 °C 19.1 °C 1016.5 hPa ENE 15.9 km/h 16.1 km/h 42.7% 0 mm 667 W/m2
15:54 33.6 °C 19.6 °C 1016.5 hPa East 11.6 km/h 19.3 km/h 43.9% 0 mm 646 W/m2
15:58 33.7 °C 19.7 °C 1016.5 hPa NNE 14 km/h 19.3 km/h 44% 0 mm 606 W/m2
16:04 33.5 °C 19.8 °C 1016.1 hPa NNE 10 km/h 16.1 km/h 44.6% 0 mm 645 W/m2
16:09 33.6 °C 19.7 °C 1016.5 hPa NE 15.6 km/h 16.1 km/h 44% 0 mm 639 W/m2
16:14 33.7 °C 19.9 °C 1016.5 hPa NE 15.9 km/h 19.3 km/h 44.5% 0 mm 635 W/m2
16:19 33.7 °C 20.2 °C 1016.1 hPa NNE 11.1 km/h 16.1 km/h 45.1% 0 mm 645 W/m2
16:24 33.8 °C 19.9 °C 1016.1 hPa North 16.6 km/h 12.9 km/h 44.2% 0 mm 609 W/m2
16:29 33.6 °C 19.2 °C 1016.1 hPa NNE 16.1 km/h 20.9 km/h 42.8% 0 mm 537 W/m2
16:34 33.4 °C 19.4 °C 1016.1 hPa NNE 12.4 km/h 19.3 km/h 43.9% 0 mm 527 W/m2
16:39 33.4 °C 19.6 °C 1016.1 hPa NNE 13.5 km/h 16.1 km/h 44.1% 0 mm 512 W/m2
16:44 33.6 °C 19.8 °C 1016.1 hPa NNE 9.7 km/h 20.9 km/h 44.4% 0 mm 489 W/m2
16:49 33.6 °C 19.7 °C 1016.1 hPa North 13 km/h 14.5 km/h 44% 0 mm 473 W/m2
16:54 33.5 °C 19.6 °C 1016.1 hPa NNE 11.9 km/h 14.5 km/h 44.1% 0 mm 460 W/m2
16:59 33.5 °C 19.7 °C 1016.1 hPa NNE 14 km/h 7.6 km/h 44.2% 0 mm 447 W/m2
17:04 33.4 °C 19.6 °C 1016.1 hPa NNE 14.8 km/h 16.1 km/h 44.4% 0 mm 430 W/m2
17:08 33.4 °C 19.5 °C 1016.1 hPa North 13.4 km/h 16.1 km/h 44% 0 mm 413 W/m2
17:14 33.3 °C 18.9 °C 1016.1 hPa NNE 15 km/h 19.3 km/h 42.8% 0 mm 395 W/m2
17:19 33.1 °C 18.9 °C 1016.1 hPa NE 11.1 km/h 16.1 km/h 43.2% 0 mm 372 W/m2
17:24 33.1 °C 19.2 °C 1016.1 hPa NE 10.3 km/h 12.9 km/h 43.8% 0 mm 345 W/m2
17:29 33.1 °C 19.3 °C 1016.1 hPa NNE 11.3 km/h 19.3 km/h 44.2% 0 mm 329 W/m2
17:34 33.1 °C 19.1 °C 1016.1 hPa North 10.8 km/h 12.9 km/h 43.8% 0 mm 311 W/m2
17:39 33 °C 19 °C 1016.1 hPa NE 12.9 km/h 14.5 km/h 43.7% 0 mm 290 W/m2
17:44 33 °C 19.1 °C 1016.1 hPa NNE 7.1 km/h 14.5 km/h 44% 0 mm 272 W/m2
17:49 33 °C 18.9 °C 1016.1 hPa North 9.3 km/h 9.7 km/h 43.3% 0 mm 256 W/m2
17:54 32.8 °C 17.9 °C 1016.1 hPa NE 16.4 km/h 11.9 km/h 41.2% 0 mm 235 W/m2
17:59 32.7 °C 17.3 °C 1016.1 hPa NE 12.6 km/h 19.3 km/h 40% 0 mm 218 W/m2
18:04 32.6 °C 17.2 °C 1016.1 hPa ENE 14.6 km/h 14.5 km/h 39.9% 0 mm 208 W/m2
18:09 32.3 °C 17 °C 1016.1 hPa East 10.8 km/h 19.3 km/h 40% 0 mm 190 W/m2
18:14 32.3 °C 17.1 °C 1016.1 hPa East 10.8 km/h 11.3 km/h 40.3% 0 mm 179 W/m2
18:19 32.2 °C 17.3 °C 1016.1 hPa East 11.3 km/h 11.3 km/h 41.1% 0 mm 167 W/m2
18:24 32.1 °C 17.4 °C 1016.1 hPa East 11.3 km/h 11.3 km/h 41.7% 0 mm 154 W/m2
18:29 32.1 °C 17.6 °C 1016.1 hPa ENE 9.3 km/h 12.9 km/h 42% 0 mm 139 W/m2
18:34 31.9 °C 17.6 °C 1016.1 hPa NE 8.2 km/h 12.9 km/h 42.4% 0 mm 126 W/m2
18:39 31.8 °C 17.4 °C 1016.1 hPa NNE 7.4 km/h 3.5 km/h 42.3% 0 mm 112 W/m2
18:44 31.7 °C 17.3 °C 1016.1 hPa NE 7.7 km/h 11.3 km/h 42.3% 0 mm 99 W/m2
18:49 31.5 °C 17.5 °C 1016.1 hPa NE 6 km/h 9.7 km/h 43.3% 0 mm 87 W/m2
18:54 31.3 °C 17.7 °C 1016.1 hPa NE 4.5 km/h 9.7 km/h 44.1% 0 mm 77 W/m2
18:59 31.1 °C 17.5 °C 1016.1 hPa NW 4.7 km/h 8 km/h 44.3% 0 mm 66 W/m2
19:04 30.8 °C 17.6 °C 1016.1 hPa NW 7.2 km/h 4.8 km/h 45% 0 mm 57 W/m2
19:09 30.7 °C 17.3 °C 1016.1 hPa NW 6.6 km/h 9.7 km/h 45% 0 mm 47 W/m2
19:14 30.4 °C 17.6 °C 1016.1 hPa NW 3.1 km/h 9.7 km/h 46.3% 0 mm 38 W/m2
19:19 30.3 °C 17.4 °C 1016.1 hPa WNW 6.3 km/h 4 km/h 46.2% 0 mm 30 W/m2
19:24 30.1 °C 16.9 °C 1016.1 hPa NNW 6.1 km/h 8 km/h 45.2% 0 mm 24 W/m2
19:29 29.8 °C 17.1 °C 1016.5 hPa NNW 6.4 km/h 8 km/h 46.3% 0 mm 17 W/m2
19:34 29.7 °C 17.2 °C 1016.5 hPa North 7.9 km/h 8 km/h 46.9% 0 mm 11 W/m2
19:39 29.6 °C 17.1 °C 1016.5 hPa North 7.9 km/h 9.7 km/h 47.2% 0 mm 8 W/m2
19:44 29.3 °C 17 °C 1016.8 hPa North 8.7 km/h 9.7 km/h 47.4% 0 mm 5 W/m2
19:49 29.2 °C 17.1 °C 1016.8 hPa North 6.8 km/h 9.7 km/h 48.1% 0 mm 3 W/m2
19:54 28.9 °C 16.8 °C 1016.8 hPa NNW 9.2 km/h 9.7 km/h 48% 0 mm 2 W/m2
19:59 28.8 °C 16.7 °C 1016.8 hPa NNW 6.9 km/h 12.9 km/h 48% 0 mm 1 W/m2
20:04 28.6 °C 16.5 °C 1016.8 hPa North 8 km/h 9.7 km/h 48% 0 mm 0 W/m2
20:09 28.5 °C 16.6 °C 1016.8 hPa North 8.7 km/h 9.7 km/h 48.5% 0 mm 0 W/m2
20:14 28.3 °C 16.7 °C 1017.2 hPa North 6.3 km/h 9.7 km/h 49.3% 0 mm 0 W/m2
20:15 28.3 °C 16.6 °C 1017.2 hPa North 1 km/h 8 km/h 49% 0 mm 0 W/m2
20:20 27.8 °C 17.1 °C 1017.2 hPa East 3.2 km/h 6.4 km/h 52% 0 mm 0 W/m2
20:25 27.3 °C 16.9 °C 1017.2 hPa Calm   6.4 km/h 53% 0 mm 0 W/m2
20:30 26.9 °C 16.8 °C 1017.2 hPa South 1.6 km/h 4.8 km/h 54% 0 mm 0 W/m2
20:35 26.7 °C 16.6 °C 1017.2 hPa Calm   4.8 km/h 54% 0 mm 0 W/m2
20:40 26.4 °C 16.7 °C 1017.5 hPa Calm   3.2 km/h 55% 0 mm 0 W/m2
20:45 26.2 °C 16.4 °C 1017.8 hPa WNW 3.2 km/h 6.4 km/h 55% 0 mm 0 W/m2
20:50 25.9 °C 16.7 °C 1017.8 hPa NNW 3.2 km/h 11.3 km/h 57% 0 mm 0 W/m2
20:55 25.9 °C 16.7 °C 1017.8 hPa SSW 3.2 km/h 11.3 km/h 57% 0 mm 0 W/m2
21:00 25.8 °C 17.2 °C 1017.8 hPa SSW 3.2 km/h 6.4 km/h 59% 0 mm 0 W/m2
21:15 25.8 °C 17.2 °C 1018.2 hPa SW 3.2 km/h 6.4 km/h 59% 0 mm 0 W/m2
21:20 25.7 °C 17.3 °C 1018.2 hPa West 3.2 km/h 8 km/h 60% 0 mm 0 W/m2
21:30 25.7 °C 17.9 °C 1018.2 hPa WNW 4.8 km/h 12.9 km/h 62% 0 mm 0 W/m2
21:40 25.8 °C 17.9 °C 1017.8 hPa NNW 9.7 km/h 16.1 km/h 62% 0 mm 0 W/m2
21:45 25.9 °C 18.1 °C 1017.8 hPa NNW 14.5 km/h 20.9 km/h 62% 0 mm 0 W/m2
21:50 26.1 °C 17.7 °C 1017.8 hPa NNW 8 km/h 20.9 km/h 60% 0 mm 0 W/m2
21:55 26.2 °C 18.3 °C 1017.8 hPa NNW 8 km/h 16.1 km/h 62% 0 mm 0 W/m2
22:00 26.1 °C 18.2 °C 1017.8 hPa North 8 km/h 16.1 km/h 62% 0 mm 0 W/m2
22:10 25.2 °C 17.4 °C 1018.2 hPa SSE 4.8 km/h 11.3 km/h 62% 0 mm 0 W/m2
22:15 25.1 °C 17.3 °C 1017.8 hPa SSW 3.2 km/h 6.4 km/h 62% 0 mm 0 W/m2
22:20 25 °C 17.4 °C 1017.8 hPa WNW 3.2 km/h 8 km/h 63% 0 mm 0 W/m2
22:25 24.8 °C 17.2 °C 1017.8 hPa West 3.2 km/h 9.7 km/h 63% 0 mm 0 W/m2
22:35 23.8 °C 16.9 °C 1017.8 hPa SSW 1.6 km/h 8 km/h 65% 0 mm 0 W/m2
22:40 23.7 °C 16.7 °C 1017.8 hPa SSW 1.6 km/h 4.8 km/h 65% 0 mm 0 W/m2
22:45 23.4 °C 17 °C 1017.8 hPa SSW 3.2 km/h 6.4 km/h 67% 0 mm 0 W/m2
22:50 23.2 °C 16.7 °C 1017.8 hPa South 3.2 km/h 8 km/h 67% 0 mm 0 W/m2
22:55 23 °C 16.8 °C 1017.8 hPa SSE 1.6 km/h 6.4 km/h 68% 0 mm 0 W/m2
23:00 22.9 °C 16.7 °C 1017.8 hPa Calm   4.8 km/h 68% 0 mm 0 W/m2
23:10 22.7 °C 16.7 °C 1018.2 hPa Calm   3.2 km/h 69% 0 mm 0 W/m2
23:15 22.6 °C 16.6 °C 1018.2 hPa Calm   3.2 km/h 69% 0 mm 0 W/m2
23:20 22.4 °C 16.7 °C 1018.2 hPa SSW 1.6 km/h 4.8 km/h 70% 0 mm 0 W/m2
23:25 22.3 °C 16.8 °C 1018.2 hPa ESE 1.6 km/h 3.2 km/h 71% 0 mm 0 W/m2
23:35 22.1 °C 16.8 °C 1018.2 hPa WNW 1.6 km/h 6.4 km/h 72% 0 mm 0 W/m2
23:40 22 °C 16.7 °C 1018.2 hPa WNW 1.6 km/h 4.8 km/h 72% 0 mm 0 W/m2
23:45 21.9 °C 16.8 °C 1018.2 hPa NW 1.6 km/h 3.2 km/h 73% 0 mm 0 W/m2
23:50 21.8 °C 16.7 °C 1018.2 hPa Calm   4.8 km/h 73% 0 mm 0 W/m2
23:55 21.7 °C 16.6 °C 1018.2 hPa Calm   4.8 km/h 73% 0 mm 0 W/m2
Knjazevac, Serbia
Compliments of Weather Underground - 2 mb